Time;durP1;ratioP1;P1;durP2;ratioP2;P2;SDS_P1;SDS_P2;PMS_P1;PMS_P2;Temp;Humidity;BMP_temperature;BMP_pressure;BME280_temperature;BME280_humidity;BME280_pressure;Samples;Min_cycle;Max_cycle;Signal;HPM_P1;HPM_P2
2022/02/16 00:00:09;;;;;;;2.70;0.90;;;12.50;99.90;;;12.90;56.05;100178.88;4908828;28;99823;-62
2022/02/16 00:02:35;;;;;;;0.90;0.50;;;12.60;99.90;;;13.04;53.38;100164.91;4907760;28;98832;-64
2022/02/16 00:05:00;;;;;;;1.77;0.90;;;12.70;99.90;;;13.03;55.54;100164.06;4930114;28;97974;-63
2022/02/16 00:07:26;;;;;;;1.07;0.50;;;12.70;99.90;;;13.10;53.34;100164.56;4910903;28;101302;-62
2022/02/16 00:09:52;;;;;;;2.10;0.97;;;12.70;99.90;;;12.87;55.18;100156.97;4904523;28;125087;-63
2022/02/16 00:12:17;;;;;;;1.43;0.63;;;12.50;99.90;;;13.04;54.49;100156.97;4931390;28;122028;-64
2022/02/16 00:14:43;;;;;;;1.73;0.70;;;12.60;99.90;;;13.06;53.69;100147.13;4928289;28;121583;-61
2022/02/16 00:17:09;;;;;;;1.40;0.60;;;12.70;99.90;;;13.00;56.21;100145.66;4932281;28;98249;-62
2022/02/16 00:19:35;;;;;;;1.97;0.60;;;12.70;99.90;;;13.08;55.19;100139.97;4906489;28;98525;-61
2022/02/16 00:22:12;;;;;;;;;;;;;;;;;;;;;
2022/02/16 00:24:38;;;;;;;2.40;0.70;;;12.70;99.90;;;13.14;54.94;100139.63;4919346;28;122151;-62
2022/02/16 00:27:04;;;;;;;2.00;0.80;;;12.80;99.90;;;13.16;55.57;100137.75;4924051;28;98978;-62
2022/02/16 00:29:31;;;;;;;1.13;0.80;;;12.90;99.90;;;13.27;54.21;100132.75;4915587;28;100139;-64
2022/02/16 00:31:56;;;;;;;1.83;0.60;;;13.00;99.90;;;13.28;54.92;100137.09;4918822;28;99617;-63
2022/02/16 00:34:22;;;;;;;1.43;0.60;;;13.00;99.90;;;13.21;55.36;100135.75;4925855;28;102223;-63
2022/02/16 00:36:49;;;;;;;0.83;0.60;;;12.90;99.90;;;13.10;56.79;100117.75;4926556;28;97957;-63
2022/02/16 00:39:14;;;;;;;2.73;0.90;;;12.80;99.90;;;13.19;54.92;100116.44;4919715;28;98946;-62
2022/02/16 00:41:40;;;;;;;1.27;0.60;;;12.80;99.90;;;13.13;55.84;100105.28;4912068;28;99730;-61
2022/02/16 00:44:06;;;;;;;1.53;0.70;;;12.80;99.90;;;13.20;55.26;100107.56;4913876;28;116061;-61
2022/02/16 00:46:32;;;;;;;1.17;0.63;;;12.80;99.90;;;13.30;55.55;100103.44;4920565;28;123305;-62
2022/02/16 00:48:57;;;;;;;1.50;0.73;;;12.90;99.90;;;13.24;53.93;100097.66;4914382;28;103383;-62
2022/02/16 00:51:23;;;;;;;0.63;0.40;;;12.80;99.90;;;13.37;54.27;100102.19;4917051;28;117882;-61
2022/02/16 00:53:49;;;;;;;0.87;0.50;;;13.00;99.90;;;13.26;54.49;100099.25;4906450;28;123115;-64
2022/02/16 00:56:17;;;;;;;1.03;0.60;;;12.90;99.90;;;13.23;52.96;100096.78;4919437;28;99771;-64
2022/02/16 00:58:47;;;;;;;1.00;0.70;;;12.90;99.90;;;13.33;54.82;100091.84;4860062;28;100460;-62
2022/02/16 01:01:13;;;;;;;1.40;0.70;;;13.00;99.90;;;13.31;55.05;100083.13;4894109;28;100422;-66
2022/02/16 01:03:40;;;;;;;0.83;0.40;;;13.00;99.90;;;13.44;51.97;100089.44;4862576;28;98459;-61
2022/02/16 01:06:06;;;;;;;1.30;0.50;;;13.00;99.90;;;13.50;54.26;100077.66;4906320;28;100072;-64
2022/02/16 01:08:31;;;;;;;1.50;0.70;;;13.10;99.90;;;13.65;51.14;100076.78;4904434;28;97335;-62
2022/02/16 01:11:11;;;;;;;0.90;0.60;;;13.30;99.90;;;13.62;54.13;100083.09;4911018;28;98921;-63
2022/02/16 01:13:36;;;;;;;1.03;0.40;;;13.30;99.90;;;13.60;52.68;100078.84;4910599;28;97683;-62
2022/02/16 01:16:03;;;;;;;0.87;0.60;;;13.20;99.90;;;13.73;51.28;100069.22;4916049;28;112283;-64
2022/02/16 01:18:29;;;;;;;0.50;0.30;;;13.30;99.90;;;13.58;52.71;100070.09;4882122;28;100088;-63
2022/02/16 01:20:55;;;;;;;1.10;0.70;;;13.20;99.90;;;13.58;51.75;100065.66;4897867;28;100461;-64
2022/02/16 01:23:21;;;;;;;0.60;0.60;;;13.20;99.90;;;13.37;55.75;100062.44;4899815;28;100325;-64
2022/02/16 01:25:47;;;;;;;0.73;0.40;;;13.10;99.90;;;13.33;53.03;100058.28;4864824;28;114131;-63
2022/02/16 01:28:13;;;;;;;1.57;0.70;;;12.90;99.90;;;13.36;52.60;100051.94;4872897;28;126532;-61
2022/02/16 01:30:40;;;;;;;1.17;0.47;;;12.90;99.90;;;13.40;53.63;100058.75;4887191;28;101501;-64
2022/02/16 01:33:07;;;;;;;1.03;0.60;;;12.90;99.90;;;13.32;53.69;100053.06;4851973;28;100411;-64
2022/02/16 01:35:33;;;;;;;1.40;0.70;;;12.90;99.90;;;13.22;55.91;100047.41;4848697;28;97909;-64
2022/02/16 01:37:59;;;;;;;0.80;0.20;;;12.80;99.90;;;13.39;51.90;100028.75;4871552;28;99767;-64
2022/02/16 01:40:24;;;;;;;1.10;0.70;;;12.90;99.90;;;13.23;56.15;100038.53;4865924;28;104295;-63
2022/02/16 01:42:51;;;;;;;1.50;0.50;;;12.90;99.90;;;13.31;52.40;100025.72;4875573;28;100055;-63
2022/02/16 01:45:27;;;;;;;0.63;0.40;;;12.90;99.90;;;13.35;53.05;100021.94;4866000;28;98182;-62
2022/02/16 01:47:55;;;;;;;0.63;0.40;;;13.00;99.90;;;13.24;53.83;100018.19;4864929;28;97988;-62
2022/02/16 01:50:21;;;;;;;0.90;0.50;;;12.90;99.90;;;13.11;56.72;100015.34;4890280;28;97734;-62
2022/02/16 01:52:48;;;;;;;0.70;0.40;;;12.80;99.90;;;13.19;53.26;100015.81;4898464;28;98835;-62
2022/02/16 01:55:20;;;;;;;1.33;0.30;;;12.80;99.90;;;13.13;56.52;100009.97;4918349;28;97981;-65
2022/02/16 01:57:48;;;;;;;1.10;0.47;;;12.80;99.90;;;13.09;56.98;100004.00;4906975;28;99830;-61
2022/02/16 02:00:14;;;;;;;0.80;0.43;;;12.70;99.90;;;13.21;53.59;100005.13;4902514;28;99869;-61
2022/02/16 02:02:40;;;;;;;0.40;0.30;;;12.80;99.90;;;13.22;52.89;99997.09;4894027;28;99319;-65
2022/02/16 02:05:06;;;;;;;2.23;0.40;;;12.80;99.90;;;13.32;53.98;99989.50;4920599;28;98338;-64
2022/02/16 02:07:35;;;;;;;0.67;0.37;;;12.90;99.90;;;13.24;56.01;99995.22;4920577;28;99422;-64
2022/02/16 02:10:03;;;;;;;0.30;0.20;;;12.80;99.90;;;13.21;54.20;99987.44;4919349;28;99100;-66
2022/02/16 02:12:29;;;;;;;0.93;0.47;;;12.80;99.90;;;13.23;54.06;99974.13;4932610;28;97404;-66
2022/02/16 02:14:55;;;;;;;1.23;0.40;;;12.80;99.90;;;13.24;54.25;99970.53;4930499;28;100494;-64
2022/02/16 02:17:20;;;;;;;1.30;0.57;;;12.90;99.90;;;13.11;57.61;99975.63;4932239;28;122070;-64
2022/02/16 02:19:46;;;;;;;2.53;0.50;;;12.70;99.90;;;13.14;53.98;99978.09;4911841;28;97961;-64
2022/02/16 02:22:12;;;;;;;1.03;0.50;;;12.80;99.90;;;13.18;55.24;99971.75;4934369;28;97949;-66
2022/02/16 02:24:38;;;;;;;1.60;0.43;;;12.70;99.90;;;13.09;57.35;99967.78;4926010;28;126182;-66
2022/02/16 02:27:04;;;;;;;0.60;0.40;;;12.70;99.90;;;13.18;54.17;99966.44;4908369;28;98462;-65
2022/02/16 02:29:31;;;;;;;1.83;0.40;;;12.70;99.90;;;13.26;54.21;99961.53;4936281;28;100522;-66
2022/02/16 02:31:58;;;;;;;0.90;0.40;;;12.80;99.90;;;13.24;54.57;99959.94;4944540;28;97062;-64
2022/02/16 02:34:24;;;;;;;0.70;0.40;;;12.80;99.90;;;13.27;56.45;99954.44;4951490;28;116369;-65
2022/02/16 02:36:50;;;;;;;2.10;0.33;;;12.90;99.90;;;13.36;55.67;99949.47;4951543;28;97606;-64
2022/02/16 02:39:16;;;;;;;1.10;0.30;;;13.00;99.90;;;13.22;56.98;99946.78;4950170;28;97028;-66
2022/02/16 02:41:42;;;;;;;0.83;0.30;;;12.80;99.90;;;13.28;54.60;99935.81;4949791;28;97343;-64
2022/02/16 02:44:07;;;;;;;0.40;0.30;;;12.90;99.90;;;13.30;56.97;99933.94;4955454;28;97264;-63
2022/02/16 02:46:33;;;;;;;0.50;0.33;;;12.90;99.90;;;13.34;56.34;99927.53;4952073;28;123513;-64
2022/02/16 02:48:59;;;;;;;0.97;0.40;;;13.00;99.90;;;13.35;53.39;99920.44;4948566;28;102937;-65
2022/02/16 02:51:25;;;;;;;0.50;0.30;;;12.90;99.90;;;13.38;53.57;99923.75;4952187;28;96801;-66
2022/02/16 02:53:52;;;;;;;0.40;0.37;;;13.00;99.90;;;13.44;54.93;99913.72;4943285;28;99062;-66
2022/02/16 02:56:18;;;;;;;0.20;0.10;;;13.00;99.90;;;13.37;53.24;99919.41;4952300;28;119496;-65
2022/02/16 02:58:44;;;;;;;1.13;0.70;;;13.00;99.90;;;13.30;56.78;99904.81;4944704;28;97162;-64
2022/02/16 03:01:10;;;;;;;0.20;0.20;;;13.00;99.90;;;13.38;55.19;99909.66;4933016;28;102438;-63
2022/02/16 03:03:40;;;;;;;1.73;0.50;;;13.00;99.90;;;13.42;56.41;99899.72;4951046;28;110714;-64
2022/02/16 03:06:11;;;;;;;0.63;0.40;;;13.00;99.90;;;13.46;52.64;99891.53;4949872;28;98656;-63
2022/02/16 03:08:37;;;;;;;0.77;0.40;;;13.00;99.90;;;13.48;53.78;99888.78;4950814;28;98075;-63
2022/02/16 03:11:03;;;;;;;0.87;0.40;;;13.10;99.90;;;13.52;54.12;99885.84;4940140;28;97039;-64
2022/02/16 03:13:29;;;;;;;0.43;0.20;;;13.10;99.90;;;13.46;54.79;99886.22;4950702;28;122339;-64
2022/02/16 03:15:55;;;;;;;0.83;0.60;;;13.10;99.90;;;13.50;54.96;99877.16;4936981;28;98186;-63
2022/02/16 03:18:21;;;;;;;0.30;0.30;;;13.10;99.90;;;13.62;53.46;99880.88;4949848;28;98625;-63
2022/02/16 03:20:49;;;;;;;1.80;0.80;;;13.20;99.90;;;13.71;52.60;99874.97;4950114;28;97368;-64
2022/02/16 03:23:16;;;;;;;1.73;0.77;;;13.30;99.90;;;13.69;55.21;99884.84;4933334;28;100107;-64
2022/02/16 03:25:42;;;;;;;0.97;0.40;;;13.30;99.90;;;13.69;53.71;99882.19;4949353;28;97041;-64
2022/02/16 03:28:09;;;;;;;0.27;0.27;;;13.30;99.90;;;13.67;52.42;99876.13;4947681;28;99109;-64
2022/02/16 03:30:35;;;;;;;1.50;0.67;;;13.30;99.90;;;13.52;53.79;99877.06;4949029;28;96944;-65
2022/02/16 03:33:05;;;;;;;1.00;0.40;;;13.20;99.90;;;13.57;55.35;99877.63;4942626;28;101629;-64
2022/02/16 03:35:31;;;;;;;1.80;0.77;;;13.20;99.90;;;13.53;53.02;99876.97;4951853;28;103515;-64
2022/02/16 03:37:59;;;;;;;1.90;0.80;;;13.10;99.90;;;13.52;55.59;99877.06;4945694;28;97176;-63
2022/02/16 03:40:25;;;;;;;1.33;0.67;;;13.10;99.90;;;13.47;56.33;99860.59;4935644;28;97475;-64
2022/02/16 03:42:51;;;;;;;2.03;0.77;;;13.10;99.90;;;13.58;54.02;99858.13;4920403;28;100743;-64
2022/02/16 03:45:18;;;;;;;0.57;0.33;;;13.20;99.90;;;13.52;55.50;99847.91;4937210;28;97211;-64
2022/02/16 03:47:45;;;;;;;0.90;0.60;;;13.20;99.90;;;13.60;53.54;99854.47;4927069;28;96886;-64
2022/02/16 03:50:11;;;;;;;2.30;0.67;;;13.20;99.90;;;13.63;53.40;99848.13;4933859;28;97613;-63
2022/02/16 03:52:37;;;;;;;1.07;0.70;;;13.30;99.90;;;13.52;54.77;99853.22;4949622;28;97647;-64
2022/02/16 03:55:03;;;;;;;2.20;0.67;;;13.10;99.90;;;13.55;54.56;99855.66;4922839;28;98805;-63
2022/02/16 03:57:29;;;;;;;1.03;0.77;;;13.20;99.90;;;13.54;56.42;99854.81;4956075;28;98270;-63
2022/02/16 03:59:55;;;;;;;2.30;0.73;;;13.20;99.90;;;13.46;56.64;99858.88;4950710;28;120787;-63
2022/02/16 04:02:22;;;;;;;0.90;0.67;;;13.10;99.90;;;13.56;54.38;99860.88;4954723;28;124165;-63
2022/02/16 04:04:47;;;;;;;1.00;0.53;;;13.10;99.90;;;13.40;55.45;99850.34;4950682;28;102904;-63
2022/02/16 04:07:14;;;;;;;1.63;0.57;;;13.00;99.90;;;13.54;54.63;99851.31;4950642;28;121824;-63
2022/02/16 04:09:41;;;;;;;0.87;0.57;;;13.20;99.90;;;13.37;57.08;99855.84;4952199;28;97546;-63
2022/02/16 04:12:09;;;;;;;0.40;0.20;;;13.10;99.90;;;13.49;54.11;99840.16;4947213;28;98844;-62
2022/02/16 04:14:35;;;;;;;1.10;0.63;;;13.10;99.90;;;13.37;55.73;99839.94;4954149;28;97887;-63
2022/02/16 04:17:01;;;;;;;0.73;0.60;;;13.10;99.90;;;13.40;55.86;99837.09;4923336;28;100165;-63
2022/02/16 04:19:27;;;;;;;2.10;0.63;;;13.10;99.90;;;13.43;54.26;99821.97;4953336;28;97898;-66
2022/02/16 04:21:53;;;;;;;1.30;0.27;;;13.10;99.90;;;13.44;56.16;99823.66;4949033;28;109909;-64
2022/02/16 04:24:19;;;;;;;0.30;0.30;;;13.20;99.90;;;13.35;54.01;99810.03;4936033;28;112711;-63
2022/02/16 04:26:46;;;;;;;0.30;0.20;;;13.00;99.90;;;13.44;55.39;99813.06;4943431;28;98808;-64
2022/02/16 04:29:12;;;;;;;0.77;0.40;;;13.10;99.90;;;13.31;56.70;99802.38;4953433;28;100042;-63
2022/02/16 04:31:38;;;;;;;1.07;0.40;;;13.00;99.90;;;13.38;55.37;99804.56;4933496;28;97616;-64
2022/02/16 04:34:04;;;;;;;0.97;0.30;;;13.10;99.90;;;13.40;54.43;99802.66;4955368;28;124328;-65
2022/02/16 04:36:29;;;;;;;0.77;0.23;;;13.10;99.90;;;13.57;53.80;99792.84;4961407;28;97347;-64
2022/02/16 04:38:58;;;;;;;1.53;0.30;;;13.30;99.90;;;13.62;54.77;99785.47;4953686;28;98181;-64
2022/02/16 04:41:24;;;;;;;0.60;0.23;;;13.30;99.90;;;13.63;55.64;99784.53;4934803;28;97173;-63
2022/02/16 04:43:51;;;;;;;0.70;0.30;;;13.40;99.90;;;13.68;55.11;99779.78;4915262;28;98539;-66
2022/02/16 04:46:17;;;;;;;0.37;0.20;;;13.30;99.90;;;13.65;53.71;99782.63;4954173;28;96638;-65
2022/02/16 04:48:44;;;;;;;0.63;0.30;;;13.30;99.90;;;13.50;56.25;99780.94;4949930;28;96925;-65
2022/02/16 04:51:10;;;;;;;0.20;0.20;;;13.20;99.90;;;13.46;57.31;99779.41;4956179;28;123311;-63
2022/02/16 04:53:36;;;;;;;1.37;0.20;;;13.20;99.90;;;13.47;57.37;99781.13;4941446;28;99132;-64
2022/02/16 04:56:18;;;;;;;0.97;0.30;;;13.20;99.90;;;13.53;54.31;99770.13;4953810;28;96956;-63
2022/02/16 04:58:44;;;;;;;0.50;0.10;;;13.20;99.90;;;13.51;53.79;99767.59;4954341;28;97537;-63
2022/02/16 05:01:10;;;;;;;0.40;0.20;;;13.20;99.90;;;13.64;52.60;99762.38;4956054;28;98217;-63
2022/02/16 05:03:35;;;;;;;1.13;0.20;;;13.30;99.90;;;13.68;55.27;99758.56;4937139;28;97359;-64
2022/02/16 05:06:01;;;;;;;0.30;0.30;;;13.40;99.90;;;13.64;55.34;99759.72;4953130;28;117726;-63
2022/02/16 05:08:27;;;;;;;0.33;0.20;;;13.40;99.90;;;13.64;54.20;99746.47;4947372;28;120491;-63
2022/02/16 05:10:53;;;;;;;0.77;0.30;;;13.30;99.90;;;13.74;56.38;99755.53;4947288;28;96925;-63
2022/02/16 05:13:19;;;;;;;0.43;0.37;;;13.50;99.90;;;13.63;56.12;99750.06;4947812;28;127006;-63
2022/02/16 05:15:45;;;;;;;1.23;0.40;;;13.40;99.90;;;13.76;53.76;99735.09;4949627;28;100053;-63
2022/02/16 05:18:12;;;;;;;0.37;0.20;;;13.50;99.90;;;13.87;52.56;99727.31;4956906;28;98232;-63
2022/02/16 05:20:38;;;;;;;0.30;0.10;;;13.60;99.90;;;13.86;54.08;99714.16;4947745;28;118156;-63
2022/02/16 05:23:07;;;;;;;0.57;0.13;;;13.60;99.90;;;13.84;52.40;99706.31;4940913;28;112153;-65
2022/02/16 05:25:35;;;;;;;0.43;0.20;;;13.60;99.90;;;13.77;56.03;99697.06;4938410;28;96888;-63
2022/02/16 05:28:00;;;;;;;0.50;0.33;;;13.60;99.90;;;13.71;54.20;99689.47;4943601;28;97768;-65
2022/02/16 05:30:26;;;;;;;0.67;0.30;;;13.50;99.90;;;13.77;54.79;99691.75;4955671;28;114729;-65
2022/02/16 05:32:52;;;;;;;2.10;0.40;;;13.50;99.90;;;13.83;54.05;99685.19;4947743;28;127418;-63
2022/02/16 05:35:18;;;;;;;1.50;0.43;;;13.50;99.90;;;13.94;51.91;99688.00;4951949;28;100475;-63
2022/02/16 05:37:44;;;;;;;0.30;0.20;;;13.60;99.90;;;13.97;51.84;99679.84;4949174;28;97883;-66
2022/02/16 05:40:11;;;;;;;3.63;0.87;;;13.70;99.90;;;14.02;53.04;99671.59;4955018;28;96839;-64
2022/02/16 05:42:37;;;;;;;3.43;0.70;;;13.70;99.90;;;14.00;52.42;99667.25;4927007;28;97556;-67
2022/02/16 05:45:04;;;;;;;2.30;0.87;;;13.70;99.90;;;14.01;52.75;99662.78;4940600;28;96818;-64
2022/02/16 05:47:30;;;;;;;4.50;1.17;;;13.60;99.90;;;14.10;54.43;99658.69;4952367;28;98287;-62
2022/02/16 05:49:55;;;;;;;1.23;0.47;;;13.70;99.90;;;14.09;53.80;99651.69;4951450;28;117274;-64
2022/02/16 05:52:21;;;;;;;3.30;0.77;;;13.80;99.90;;;13.98;52.29;99645.28;4951283;28;125933;-63
2022/02/16 05:54:47;;;;;;;1.10;0.57;;;13.70;99.90;;;13.95;55.29;99645.50;4947255;28;97589;-63
2022/02/16 05:57:13;;;;;;;1.63;0.63;;;13.70;99.90;;;13.88;55.50;99646.81;4932108;28;96981;-63
2022/02/16 05:59:39;;;;;;;0.70;0.30;;;13.60;99.90;;;13.80;52.72;99638.53;4933264;28;98361;-63
2022/02/16 06:02:06;;;;;;;2.77;0.50;;;13.50;99.90;;;13.85;55.40;99631.13;4918157;28;97268;-64
2022/02/16 06:04:35;;;;;;;1.47;0.47;;;13.60;99.90;;;13.65;56.57;99634.22;4951587;28;97204;-63
2022/02/16 06:07:01;;;;;;;2.77;0.60;;;13.50;99.90;;;13.85;53.59;99628.47;4948551;28;124879;-63
2022/02/16 06:09:27;;;;;;;3.27;1.10;;;13.60;99.90;;;13.77;56.29;99616.69;4932902;28;99633;-63
2022/02/16 06:11:53;;;;;;;2.37;0.70;;;13.50;99.90;;;13.79;54.94;99607.69;4950259;28;114860;-65
2022/02/16 06:14:19;;;;;;;1.90;0.73;;;13.50;99.90;;;13.84;52.61;99610.88;4952229;28;97304;-62
2022/02/16 06:16:46;;;;;;;1.97;0.80;;;13.50;99.90;;;13.79;56.09;99596.25;4949758;28;98145;-63
2022/02/16 06:19:11;;;;;;;1.53;0.53;;;13.60;99.90;;;13.73;55.91;99601.91;4947064;28;118089;-63
2022/02/16 06:21:37;;;;;;;1.20;0.60;;;13.50;99.90;;;13.71;53.65;99604.69;4948315;28;111570;-66
2022/02/16 06:24:03;;;;;;;1.13;0.60;;;13.50;99.90;;;13.55;56.95;99606.63;4955013;28;105775;-64
2022/02/16 06:26:29;;;;;;;1.60;0.77;;;13.40;99.90;;;13.62;55.39;99590.25;4951748;28;98525;-63
2022/02/16 06:28:55;;;;;;;1.13;0.60;;;13.40;99.90;;;13.69;53.44;99590.69;4944498;28;97446;-63
2022/02/16 06:31:21;;;;;;;1.97;0.60;;;13.50;99.90;;;13.61;55.06;99585.91;4950392;28;97297;-63
2022/02/16 06:33:47;;;;;;;0.67;0.43;;;13.50;99.90;;;13.65;53.60;99579.44;4945710;28;99401;-65
2022/02/16 06:36:12;;;;;;;0.87;0.30;;;13.40;99.90;;;13.80;55.22;99572.28;4950026;28;111139;-63
2022/02/16 06:38:38;;;;;;;0.57;0.30;;;13.60;99.90;;;13.94;53.03;99571.38;4948502;28;114693;-63
2022/02/16 06:41:04;;;;;;;1.87;0.30;;;13.70;99.90;;;13.87;55.84;99568.25;4948306;28;97311;-63
2022/02/16 06:43:30;;;;;;;0.97;0.43;;;13.70;99.90;;;13.91;54.73;99563.63;4936968;28;107346;-63
2022/02/16 06:45:56;;;;;;;0.63;0.10;;;13.70;99.90;;;13.77;53.96;99556.59;4948100;28;122602;-64
2022/02/16 06:48:22;;;;;;;0.87;0.30;;;13.60;99.90;;;13.74;56.15;99559.41;4951380;28;98737;-62
2022/02/16 06:50:47;;;;;;;0.80;0.30;;;13.50;99.90;;;13.89;52.14;99555.78;4949957;28;112490;-64
2022/02/16 06:53:13;;;;;;;1.00;0.30;;;13.60;99.90;;;14.03;53.67;99556.63;4950955;28;97174;-64
2022/02/16 06:55:40;;;;;;;0.97;0.60;;;13.90;99.90;;;13.95;55.03;99560.66;4953869;28;97254;-62
2022/02/16 06:58:05;;;;;;;0.60;0.40;;;13.80;99.90;;;13.98;54.39;99552.50;4951297;28;97319;-63
2022/02/16 07:00:32;;;;;;;1.70;0.40;;;13.80;99.90;;;13.91;55.84;99551.22;4949974;28;98556;-63
2022/02/16 07:02:59;;;;;;;0.97;0.20;;;13.70;99.90;;;13.87;55.95;99552.34;4929969;28;109786;-63
2022/02/16 07:05:24;;;;;;;0.73;0.30;;;13.70;99.90;;;14.02;53.27;99544.34;4953247;28;96606;-63
2022/02/16 07:07:50;;;;;;;1.37;0.30;;;13.80;99.90;;;13.92;56.34;99530.88;4946731;28;98856;-63
2022/02/16 07:10:16;;;;;;;0.67;0.30;;;13.80;99.90;;;13.97;53.93;99534.91;4950811;28;97264;-63
2022/02/16 07:12:42;;;;;;;1.17;0.27;;;13.80;99.90;;;13.90;56.08;99548.69;4947267;28;97315;-62
2022/02/16 07:15:13;;;;;;;1.30;0.70;;;13.70;99.90;;;13.84;53.68;99536.66;4953858;28;104974;-63
2022/02/16 07:17:43;;;;;;;1.80;0.60;;;13.60;99.90;;;13.89;56.46;99529.28;4946517;28;98625;-65
2022/02/16 07:20:12;;;;;;;1.33;0.50;;;13.70;99.90;;;13.77;56.32;99530.09;4908342;28;104336;-64
2022/02/16 07:22:46;;;;;;;1.17;0.70;;;13.50;99.90;;;13.79;57.61;99527.34;4953413;28;97006;-63
2022/02/16 07:25:13;;;;;;;0.50;0.30;;;13.60;99.90;;;13.83;54.25;99519.06;4938294;28;97156;-64
2022/02/16 07:27:39;;;;;;;0.60;0.50;;;13.60;99.90;;;13.62;58.37;99515.22;4932167;28;98204;-64
2022/02/16 07:30:09;;;;;;;0.47;0.30;;;13.50;99.90;;;13.86;53.54;99508.25;4946605;28;97208;-63
2022/02/16 07:32:40;;;;;;;0.70;0.30;;;13.60;99.90;;;13.79;55.64;99512.28;4930845;28;97443;-60
2022/02/16 07:35:12;;;;;;;0.73;0.33;;;13.60;99.90;;;13.66;57.60;99506.09;4933131;28;97493;-62
2022/02/16 07:37:38;;;;;;;0.43;0.20;;;13.50;99.90;;;13.83;53.60;99492.56;4932564;28;97234;-65
2022/02/16 07:40:05;;;;;;;0.70;0.43;;;13.60;99.90;;;13.87;53.20;99482.59;4939176;28;97096;-63
2022/02/16 07:42:32;;;;;;;0.50;0.30;;;13.70;99.90;;;13.87;56.51;99506.44;4932376;28;101102;-65
2022/02/16 07:44:58;;;;;;;1.00;0.53;;;13.70;99.90;;;13.90;54.81;99498.31;4951336;28;97457;-64
2022/02/16 07:47:25;;;;;;;0.80;0.40;;;13.70;99.90;;;13.82;54.83;99501.47;4954852;28;97532;-63
2022/02/16 07:49:51;;;;;;;1.80;0.40;;;13.70;99.90;;;13.79;56.38;99504.34;4930910;28;99258;-61
2022/02/16 07:52:16;;;;;;;0.70;0.30;;;13.60;99.90;;;13.65;58.48;99493.81;4954218;28;104322;-62
2022/02/16 07:54:43;;;;;;;1.30;0.50;;;13.60;99.90;;;13.60;57.72;99491.47;4934356;28;109965;-64
2022/02/16 07:57:09;;;;;;;1.60;0.40;;;13.40;99.90;;;13.59;57.56;99505.63;4957356;28;97476;-63
2022/02/16 07:59:35;;;;;;;1.03;0.50;;;13.40;99.90;;;13.57;58.14;99496.09;4938086;28;123892;-63
2022/02/16 08:02:03;;;;;;;1.67;1.07;;;13.40;99.90;;;13.66;58.29;99490.19;4947696;28;98286;-62
2022/02/16 08:04:30;;;;;;;0.40;0.40;;;13.50;99.90;;;13.56;57.45;99479.34;4954634;28;97277;-65
2022/02/16 08:06:57;;;;;;;0.40;0.20;;;13.40;99.90;;;13.69;58.09;99476.75;4930441;28;101715;-64
2022/02/16 08:09:23;;;;;;;0.87;0.30;;;13.50;99.90;;;13.88;53.91;99477.19;4952058;28;97389;-64
2022/02/16 08:11:49;;;;;;;1.30;0.50;;;13.70;99.90;;;13.82;55.84;99474.97;4949719;28;97724;-64
2022/02/16 08:14:15;;;;;;;1.13;0.77;;;13.60;99.90;;;13.84;55.18;99473.06;4953848;28;105406;-63
2022/02/16 08:16:42;;;;;;;1.13;0.77;;;13.60;99.90;;;13.89;56.18;99481.56;4947352;28;103068;-65
2022/02/16 08:19:10;;;;;;;0.70;0.47;;;13.60;99.90;;;13.87;58.95;99483.44;4954490;28;96988;-64
2022/02/16 08:21:37;;;;;;;0.80;0.63;;;13.70;99.90;;;13.91;58.55;99476.16;4955472;28;97070;-67
2022/02/16 08:24:05;;;;;;;1.87;0.80;;;13.70;99.90;;;13.86;56.40;99471.16;4933777;28;97568;-64
2022/02/16 08:26:30;;;;;;;0.60;0.50;;;13.60;99.90;;;13.79;59.34;99475.19;4950896;28;98114;-65
2022/02/16 08:28:56;;;;;;;0.40;0.20;;;13.50;99.90;;;13.94;53.66;99465.34;4930099;28;97160;-64
2022/02/16 08:31:22;;;;;;;1.13;0.53;;;13.60;99.90;;;13.81;59.10;99473.28;4953068;28;115115;-64
2022/02/16 08:33:49;;;;;;;1.90;0.80;;;13.60;99.90;;;13.86;57.62;99468.50;4945384;28;113363;-65
2022/02/16 08:36:16;;;;;;;2.60;0.87;;;13.60;99.90;;;13.90;55.94;99472.66;4935400;28;97490;-65
2022/02/16 08:38:42;;;;;;;2.30;0.50;;;13.60;99.90;;;13.85;59.03;99469.44;4945661;28;126360;-65
2022/02/16 08:41:10;;;;;;;0.60;0.40;;;13.60;99.90;;;13.88;56.13;99463.94;4951010;28;96763;-65
2022/02/16 08:43:35;;;;;;;0.60;0.40;;;13.60;99.90;;;13.92;54.22;99465.44;4938405;28;103872;-69
2022/02/16 08:46:01;;;;;;;1.97;0.50;;;13.70;99.90;;;13.94;59.95;99471.50;4949432;28;117700;-63
2022/02/16 08:48:28;;;;;;;3.13;0.50;;;13.70;99.90;;;14.09;57.48;99471.41;4941693;28;100223;-65
2022/02/16 08:50:56;;;;;;;1.60;0.40;;;13.90;99.90;;;14.14;54.50;99469.25;4930171;28;98616;-65
2022/02/16 08:53:27;;;;;;;1.70;0.67;;;13.90;99.90;;;14.09;59.49;99471.41;4953008;28;97142;-64
2022/02/16 08:55:54;;;;;;;1.37;0.50;;;13.90;99.90;;;14.15;54.63;99466.50;4946988;28;97143;-64
2022/02/16 08:58:23;;;;;;;1.37;0.70;;;13.90;99.90;;;14.09;58.94;99476.69;4952762;28;122357;-64
2022/02/16 09:00:49;;;;;;;0.90;0.50;;;13.80;99.90;;;14.02;58.42;99459.50;4947449;28;97071;-65
2022/02/16 09:03:16;;;;;;;0.97;0.50;;;13.80;99.90;;;14.06;58.05;99461.00;4953530;28;97307;-65
2022/02/16 09:05:42;;;;;;;3.13;0.30;;;13.80;99.90;;;14.03;58.30;99461.19;4930392;28;97423;-64
2022/02/16 09:08:08;;;;;;;0.67;0.37;;;13.70;99.90;;;14.07;54.92;99473.31;4950740;28;113294;-64
2022/02/16 09:10:34;;;;;;;0.50;0.40;;;13.80;99.90;;;14.19;53.87;99467.16;4951309;28;97990;-65
2022/02/16 09:13:00;;;;;;;1.20;0.53;;;13.90;99.90;;;14.12;58.98;99471.19;4950424;28;97270;-64
2022/02/16 09:15:26;;;;;;;0.20;0.10;;;13.90;99.90;;;14.19;53.02;99461.88;4951312;28;99280;-63
2022/02/16 09:17:54;;;;;;;0.57;0.30;;;13.90;99.90;;;14.18;57.06;99476.06;4949083;28;99184;-64
2022/02/16 09:20:20;;;;;;;0.67;0.37;;;13.90;99.90;;;14.23;56.62;99468.63;4953769;28;97232;-64
2022/02/16 09:22:46;;;;;;;0.73;0.30;;;14.00;99.90;;;14.33;57.21;99477.66;4947516;28;112017;-62
2022/02/16 09:25:12;;;;;;;1.53;0.73;;;14.10;99.90;;;14.37;58.36;99465.88;4956932;28;110499;-64
2022/02/16 09:27:38;;;;;;;2.20;1.20;;;14.10;99.90;;;14.36;55.27;99480.09;4951023;28;97274;-64
2022/02/16 09:30:05;;;;;;;1.27;0.50;;;14.10;99.90;;;14.50;52.53;99472.06;4935941;28;96671;-63
2022/02/16 09:32:31;;;;;;;1.57;0.60;;;14.30;99.90;;;14.48;53.33;99473.13;4933264;28;97237;-65
2022/02/16 09:34:57;;;;;;;1.40;0.40;;;14.30;99.90;;;14.57;52.36;99467.16;4946587;28;110248;-64
2022/02/16 09:37:24;;;;;;;0.30;0.20;;;14.30;99.90;;;14.70;53.13;99483.91;4954781;28;96766;-64
2022/02/16 09:39:51;;;;;;;2.23;0.47;;;14.50;99.90;;;14.84;53.69;99485.56;4932022;28;97692;-65
2022/02/16 09:42:17;;;;;;;0.67;0.20;;;14.80;99.90;;;14.96;51.69;99468.75;4947619;28;97393;-65
2022/02/16 09:44:46;;;;;;;0.27;0.00;;;14.90;99.90;;;14.92;52.70;99462.00;4950313;28;112167;-65
2022/02/16 09:47:13;;;;;;;1.13;0.10;;;14.90;99.90;;;14.96;54.47;99468.75;4946881;28;97263;-65
2022/02/16 09:49:39;;;;;;;0.27;0.10;;;14.90;99.90;;;14.95;55.89;99467.06;4930328;28;97289;-64
2022/02/16 09:52:08;;;;;;;0.20;0.10;;;14.90;99.90;;;14.98;54.11;99472.16;4957041;28;96858;-65
2022/02/16 09:54:34;;;;;;;0.77;0.20;;;14.90;99.90;;;14.89;57.44;99483.41;4938031;28;97313;-63
2022/02/16 09:57:00;;;;;;;0.10;0.10;;;14.90;99.90;;;14.82;55.53;99467.09;4951669;28;97060;-65
2022/02/16 09:59:26;;;;;;;0.40;0.20;;;14.90;99.90;;;14.92;53.17;99467.31;4955741;28;99201;-65
2022/02/16 10:01:58;;;;;;;1.10;0.10;;;15.00;99.90;;;14.97;58.28;99490.84;4951281;28;116784;-65
2022/02/16 10:04:26;;;;;;;0.40;0.10;;;15.10;99.90;;;14.99;55.47;99495.09;4937576;28;97000;-65
2022/02/16 10:06:54;;;;;;;0.23;0.20;;;15.10;99.90;;;14.97;53.40;99485.53;4932570;28;98875;-64
2022/02/16 10:09:29;;;;;;;0.30;0.30;;;15.20;99.90;;;15.06;56.43;99491.03;4951373;28;97137;-65
2022/02/16 10:12:02;;;;;;;0.30;0.20;;;15.20;99.90;;;15.07;53.23;99506.03;4947615;28;96770;-65
2022/02/16 10:14:39;;;;;;;0.87;0.20;;;15.20;99.90;;;15.07;54.73;99497.22;4949234;28;100007;-65